sensor_id;sensor_type;location;lat;lon;timestamp;P1;durP1;ratioP1;P2;durP2;ratioP2
26014;SDS011;13793;55.388;37.844;2023-05-23T00:00:27;17.20;;;11.93;;
26014;SDS011;13793;55.388;37.844;2023-05-23T00:03:09;16.57;;;12.05;;
26014;SDS011;13793;55.388;37.844;2023-05-23T00:05:40;17.27;;;11.15;;
26014;SDS011;13793;55.388;37.844;2023-05-23T00:08:21;17.82;;;11.15;;
26014;SDS011;13793;55.388;37.844;2023-05-23T00:10:51;16.40;;;11.73;;
26014;SDS011;13793;55.388;37.844;2023-05-23T00:13:32;17.40;;;12.93;;
26014;SDS011;13793;55.388;37.844;2023-05-23T00:16:03;17.95;;;11.50;;
26014;SDS011;13793;55.388;37.844;2023-05-23T00:18:46;19.02;;;12.20;;
26014;SDS011;13793;55.388;37.844;2023-05-23T00:21:19;16.97;;;11.65;;
26014;SDS011;13793;55.388;37.844;2023-05-23T00:24:00;14.95;;;11.75;;
26014;SDS011;13793;55.388;37.844;2023-05-23T00:26:32;16.90;;;11.70;;
26014;SDS011;13793;55.388;37.844;2023-05-23T00:29:19;17.12;;;13.03;;
26014;SDS011;13793;55.388;37.844;2023-05-23T00:31:50;15.32;;;11.28;;
26014;SDS011;13793;55.388;37.844;2023-05-23T00:34:30;20.85;;;13.48;;
26014;SDS011;13793;55.388;37.844;2023-05-23T00:37:03;18.48;;;12.58;;
26014;SDS011;13793;55.388;37.844;2023-05-23T00:39:44;18.20;;;12.58;;
26014;SDS011;13793;55.388;37.844;2023-05-23T00:42:15;16.30;;;12.37;;
26014;SDS011;13793;55.388;37.844;2023-05-23T00:44:56;16.17;;;11.35;;
26014;SDS011;13793;55.388;37.844;2023-05-23T00:47:28;15.98;;;12.82;;
26014;SDS011;13793;55.388;37.844;2023-05-23T00:50:10;17.32;;;13.38;;
26014;SDS011;13793;55.388;37.844;2023-05-23T00:52:43;22.35;;;12.07;;
26014;SDS011;13793;55.388;37.844;2023-05-23T00:55:25;19.07;;;12.85;;
26014;SDS011;13793;55.388;37.844;2023-05-23T00:57:57;19.07;;;12.45;;
26014;SDS011;13793;55.388;37.844;2023-05-23T01:00:38;18.70;;;13.57;;
26014;SDS011;13793;55.388;37.844;2023-05-23T01:03:10;19.70;;;13.20;;
26014;SDS011;13793;55.388;37.844;2023-05-23T01:05:52;16.73;;;13.23;;
26014;SDS011;13793;55.388;37.844;2023-05-23T01:08:23;16.47;;;12.97;;
26014;SDS011;13793;55.388;37.844;2023-05-23T01:11:05;16.57;;;12.47;;
26014;SDS011;13793;55.388;37.844;2023-05-23T01:13:41;17.20;;;12.77;;
26014;SDS011;13793;55.388;37.844;2023-05-23T01:16:28;21.82;;;14.90;;
26014;SDS011;13793;55.388;37.844;2023-05-23T01:19:26;17.70;;;14.30;;
26014;SDS011;13793;55.388;37.844;2023-05-23T01:25:00;18.00;;;15.20;;
26014;SDS011;13793;55.388;37.844;2023-05-23T01:27:42;18.13;;;13.30;;
26014;SDS011;13793;55.388;37.844;2023-05-23T01:30:24;18.23;;;12.73;;
26014;SDS011;13793;55.388;37.844;2023-05-23T01:32:55;17.23;;;13.30;;
26014;SDS011;13793;55.388;37.844;2023-05-23T01:35:41;21.70;;;14.28;;
26014;SDS011;13793;55.388;37.844;2023-05-23T01:38:12;20.05;;;13.05;;
26014;SDS011;13793;55.388;37.844;2023-05-23T01:40:53;18.87;;;13.83;;
26014;SDS011;13793;55.388;37.844;2023-05-23T01:43:24;18.17;;;12.60;;
26014;SDS011;13793;55.388;37.844;2023-05-23T01:46:05;23.00;;;13.05;;
26014;SDS011;13793;55.388;37.844;2023-05-23T01:48:37;19.07;;;12.82;;
26014;SDS011;13793;55.388;37.844;2023-05-23T01:51:18;19.45;;;12.60;;
26014;SDS011;13793;55.388;37.844;2023-05-23T01:53:50;18.95;;;12.28;;
26014;SDS011;13793;55.388;37.844;2023-05-23T01:56:31;17.87;;;12.05;;
26014;SDS011;13793;55.388;37.844;2023-05-23T01:59:03;19.65;;;12.93;;
26014;SDS011;13793;55.388;37.844;2023-05-23T02:01:43;16.90;;;12.05;;
26014;SDS011;13793;55.388;37.844;2023-05-23T02:04:14;17.55;;;11.80;;
26014;SDS011;13793;55.388;37.844;2023-05-23T02:06:55;19.52;;;11.43;;
26014;SDS011;13793;55.388;37.844;2023-05-23T02:09:25;12.70;;;11.35;;
26014;SDS011;13793;55.388;37.844;2023-05-23T02:12:06;15.63;;;12.10;;
26014;SDS011;13793;55.388;37.844;2023-05-23T02:14:37;14.75;;;11.53;;
26014;SDS011;13793;55.388;37.844;2023-05-23T02:17:20;16.80;;;11.50;;
26014;SDS011;13793;55.388;37.844;2023-05-23T02:19:52;13.93;;;11.03;;
26014;SDS011;13793;55.388;37.844;2023-05-23T02:22:52;14.95;;;11.50;;
26014;SDS011;13793;55.388;37.844;2023-05-23T02:25:23;18.07;;;11.57;;
26014;SDS011;13793;55.388;37.844;2023-05-23T02:28:04;15.38;;;11.35;;
26014;SDS011;13793;55.388;37.844;2023-05-23T02:30:35;16.77;;;10.55;;
26014;SDS011;13793;55.388;37.844;2023-05-23T02:33:16;15.30;;;10.32;;
26014;SDS011;13793;55.388;37.844;2023-05-23T02:35:57;15.05;;;10.60;;
26014;SDS011;13793;55.388;37.844;2023-05-23T02:38:28;16.23;;;9.60;;
26014;SDS011;13793;55.388;37.844;2023-05-23T02:41:09;15.15;;;9.65;;
26014;SDS011;13793;55.388;37.844;2023-05-23T02:43:40;13.28;;;9.70;;
26014;SDS011;13793;55.388;37.844;2023-05-23T02:46:21;17.30;;;9.40;;
26014;SDS011;13793;55.388;37.844;2023-05-23T02:48:52;18.90;;;9.20;;
26014;SDS011;13793;55.388;37.844;2023-05-23T02:51:33;10.82;;;8.10;;
26014;SDS011;13793;55.388;37.844;2023-05-23T02:54:04;15.00;;;8.03;;
26014;SDS011;13793;55.388;37.844;2023-05-23T02:56:46;11.90;;;7.83;;
26014;SDS011;13793;55.388;37.844;2023-05-23T02:59:19;13.68;;;8.05;;
26014;SDS011;13793;55.388;37.844;2023-05-23T03:02:01;10.88;;;8.05;;
26014;SDS011;13793;55.388;37.844;2023-05-23T03:04:31;11.73;;;7.78;;
26014;SDS011;13793;55.388;37.844;2023-05-23T03:07:12;12.78;;;7.50;;
26014;SDS011;13793;55.388;37.844;2023-05-23T03:09:44;10.48;;;8.30;;
26014;SDS011;13793;55.388;37.844;2023-05-23T03:12:26;14.35;;;8.33;;
26014;SDS011;13793;55.388;37.844;2023-05-23T03:14:57;10.93;;;7.83;;
26014;SDS011;13793;55.388;37.844;2023-05-23T03:17:38;12.73;;;7.33;;
26014;SDS011;13793;55.388;37.844;2023-05-23T03:20:09;11.33;;;7.62;;
26014;SDS011;13793;55.388;37.844;2023-05-23T03:22:50;12.90;;;7.40;;
26014;SDS011;13793;55.388;37.844;2023-05-23T03:25:20;9.38;;;7.25;;
26014;SDS011;13793;55.388;37.844;2023-05-23T03:28:01;9.23;;;7.03;;
26014;SDS011;13793;55.388;37.844;2023-05-23T03:30:32;13.13;;;7.37;;
26014;SDS011;13793;55.388;37.844;2023-05-23T03:33:13;10.88;;;6.85;;
26014;SDS011;13793;55.388;37.844;2023-05-23T03:35:44;9.90;;;6.65;;
26014;SDS011;13793;55.388;37.844;2023-05-23T03:38:24;10.13;;;6.65;;
26014;SDS011;13793;55.388;37.844;2023-05-23T03:40:56;11.25;;;7.22;;
26014;SDS011;13793;55.388;37.844;2023-05-23T03:43:37;10.30;;;6.53;;
26014;SDS011;13793;55.388;37.844;2023-05-23T03:46:08;10.98;;;6.50;;
26014;SDS011;13793;55.388;37.844;2023-05-23T03:48:49;8.38;;;6.58;;
26014;SDS011;13793;55.388;37.844;2023-05-23T03:51:20;12.47;;;6.97;;
26014;SDS011;13793;55.388;37.844;2023-05-23T03:54:02;10.68;;;6.25;;
26014;SDS011;13793;55.388;37.844;2023-05-23T03:56:32;9.55;;;6.92;;
26014;SDS011;13793;55.388;37.844;2023-05-23T03:59:14;10.43;;;7.08;;
26014;SDS011;13793;55.388;37.844;2023-05-23T04:01:46;9.70;;;6.65;;
26014;SDS011;13793;55.388;37.844;2023-05-23T04:04:27;9.38;;;6.53;;
26014;SDS011;13793;55.388;37.844;2023-05-23T04:07:02;8.98;;;6.72;;
26014;SDS011;13793;55.388;37.844;2023-05-23T04:09:43;10.45;;;6.67;;
26014;SDS011;13793;55.388;37.844;2023-05-23T04:12:15;9.68;;;6.92;;
26014;SDS011;13793;55.388;37.844;2023-05-23T04:14:57;9.93;;;6.55;;
26014;SDS011;13793;55.388;37.844;2023-05-23T04:17:30;9.78;;;6.12;;
26014;SDS011;13793;55.388;37.844;2023-05-23T04:20:12;11.10;;;5.95;;
26014;SDS011;13793;55.388;37.844;2023-05-23T04:22:43;10.10;;;6.60;;
26014;SDS011;13793;55.388;37.844;2023-05-23T04:25:24;8.48;;;6.33;;
26014;SDS011;13793;55.388;37.844;2023-05-23T04:28:18;12.40;;;5.58;;
26014;SDS011;13793;55.388;37.844;2023-05-23T04:30:49;9.13;;;5.75;;
26014;SDS011;13793;55.388;37.844;2023-05-23T04:33:32;10.78;;;6.12;;
26014;SDS011;13793;55.388;37.844;2023-05-23T04:36:05;7.15;;;5.40;;
26014;SDS011;13793;55.388;37.844;2023-05-23T04:38:54;10.32;;;5.87;;
26014;SDS011;13793;55.388;37.844;2023-05-23T04:41:25;10.50;;;5.28;;
26014;SDS011;13793;55.388;37.844;2023-05-23T04:44:26;9.55;;;5.58;;
26014;SDS011;13793;55.388;37.844;2023-05-23T04:47:12;9.18;;;5.80;;
26014;SDS011;13793;55.388;37.844;2023-05-23T04:49:55;11.85;;;5.30;;
26014;SDS011;13793;55.388;37.844;2023-05-23T04:52:37;9.23;;;5.28;;
26014;SDS011;13793;55.388;37.844;2023-05-23T04:55:08;7.17;;;4.72;;
26014;SDS011;13793;55.388;37.844;2023-05-23T04:57:49;8.25;;;4.78;;
26014;SDS011;13793;55.388;37.844;2023-05-23T05:00:21;8.60;;;4.67;;
26014;SDS011;13793;55.388;37.844;2023-05-23T05:03:08;7.90;;;4.95;;
26014;SDS011;13793;55.388;37.844;2023-05-23T05:05:44;7.47;;;4.50;;
26014;SDS011;13793;55.388;37.844;2023-05-23T05:08:26;8.78;;;4.78;;
26014;SDS011;13793;55.388;37.844;2023-05-23T05:10:57;9.25;;;4.60;;
26014;SDS011;13793;55.388;37.844;2023-05-23T05:13:53;9.08;;;4.90;;
26014;SDS011;13793;55.388;37.844;2023-05-23T05:16:24;6.30;;;4.75;;
26014;SDS011;13793;55.388;37.844;2023-05-23T05:19:05;12.35;;;4.87;;
26014;SDS011;13793;55.388;37.844;2023-05-23T05:21:36;8.13;;;4.92;;
26014;SDS011;13793;55.388;37.844;2023-05-23T05:24:17;11.12;;;4.83;;
26014;SDS011;13793;55.388;37.844;2023-05-23T05:27:00;8.63;;;5.15;;
26014;SDS011;13793;55.388;37.844;2023-05-23T05:29:54;8.65;;;4.78;;
26014;SDS011;13793;55.388;37.844;2023-05-23T05:32:39;8.30;;;4.58;;
26014;SDS011;13793;55.388;37.844;2023-05-23T05:35:21;5.70;;;4.33;;
26014;SDS011;13793;55.388;37.844;2023-05-23T05:37:52;8.78;;;4.90;;
26014;SDS011;13793;55.388;37.844;2023-05-23T05:40:33;11.63;;;5.15;;
26014;SDS011;13793;55.388;37.844;2023-05-23T05:43:05;8.18;;;4.53;;
26014;SDS011;13793;55.388;37.844;2023-05-23T05:45:46;8.80;;;4.80;;
26014;SDS011;13793;55.388;37.844;2023-05-23T05:48:26;7.58;;;4.50;;
26014;SDS011;13793;55.388;37.844;2023-05-23T05:51:21;10.03;;;4.65;;
26014;SDS011;13793;55.388;37.844;2023-05-23T05:53:52;8.95;;;5.17;;
26014;SDS011;13793;55.388;37.844;2023-05-23T05:56:33;6.55;;;4.40;;
26014;SDS011;13793;55.388;37.844;2023-05-23T05:59:05;8.45;;;4.75;;
26014;SDS011;13793;55.388;37.844;2023-05-23T06:01:46;7.08;;;5.12;;
26014;SDS011;13793;55.388;37.844;2023-05-23T06:04:19;10.25;;;5.28;;
26014;SDS011;13793;55.388;37.844;2023-05-23T06:07:00;7.85;;;4.70;;
26014;SDS011;13793;55.388;37.844;2023-05-23T06:09:42;10.50;;;5.33;;
26014;SDS011;13793;55.388;37.844;2023-05-23T06:12:23;10.58;;;5.15;;
26014;SDS011;13793;55.388;37.844;2023-05-23T06:14:54;8.65;;;5.15;;
26014;SDS011;13793;55.388;37.844;2023-05-23T06:17:35;9.43;;;4.70;;
26014;SDS011;13793;55.388;37.844;2023-05-23T06:20:06;7.35;;;4.33;;
26014;SDS011;13793;55.388;37.844;2023-05-23T06:22:48;9.03;;;4.40;;
26014;SDS011;13793;55.388;37.844;2023-05-23T06:25:19;7.58;;;4.53;;
26014;SDS011;13793;55.388;37.844;2023-05-23T06:28:06;7.60;;;4.08;;
26014;SDS011;13793;55.388;37.844;2023-05-23T06:30:37;8.53;;;4.08;;
26014;SDS011;13793;55.388;37.844;2023-05-23T06:33:19;5.65;;;3.95;;
26014;SDS011;13793;55.388;37.844;2023-05-23T06:35:50;6.70;;;4.17;;
26014;SDS011;13793;55.388;37.844;2023-05-23T06:38:31;7.05;;;3.98;;
26014;SDS011;13793;55.388;37.844;2023-05-23T06:41:02;9.18;;;4.33;;
26014;SDS011;13793;55.388;37.844;2023-05-23T06:44:04;9.63;;;3.90;;
26014;SDS011;13793;55.388;37.844;2023-05-23T06:46:47;7.03;;;4.05;;
26014;SDS011;13793;55.388;37.844;2023-05-23T06:49:42;5.92;;;3.80;;
26014;SDS011;13793;55.388;37.844;2023-05-23T06:52:23;7.80;;;3.70;;
26014;SDS011;13793;55.388;37.844;2023-05-23T06:54:54;5.85;;;4.00;;
26014;SDS011;13793;55.388;37.844;2023-05-23T06:57:35;10.50;;;4.20;;
26014;SDS011;13793;55.388;37.844;2023-05-23T07:00:06;6.45;;;3.87;;
26014;SDS011;13793;55.388;37.844;2023-05-23T07:03:04;5.37;;;3.77;;
26014;SDS011;13793;55.388;37.844;2023-05-23T07:05:36;8.90;;;3.87;;
26014;SDS011;13793;55.388;37.844;2023-05-23T07:08:17;5.33;;;3.33;;
26014;SDS011;13793;55.388;37.844;2023-05-23T07:10:49;6.97;;;3.47;;
26014;SDS011;13793;55.388;37.844;2023-05-23T07:13:44;5.50;;;3.65;;
26014;SDS011;13793;55.388;37.844;2023-05-23T07:16:17;7.35;;;3.30;;
26014;SDS011;13793;55.388;37.844;2023-05-23T07:19:00;4.78;;;3.30;;
26014;SDS011;13793;55.388;37.844;2023-05-23T07:21:33;6.72;;;3.40;;
26014;SDS011;13793;55.388;37.844;2023-05-23T07:24:39;8.50;;;3.40;;
26014;SDS011;13793;55.388;37.844;2023-05-23T07:27:27;10.30;;;3.60;;
26014;SDS011;13793;55.388;37.844;2023-05-23T07:29:58;7.33;;;3.50;;
26014;SDS011;13793;55.388;37.844;2023-05-23T07:32:40;7.65;;;3.98;;
26014;SDS011;13793;55.388;37.844;2023-05-23T07:35:21;7.17;;;3.40;;
26014;SDS011;13793;55.388;37.844;2023-05-23T07:37:54;7.25;;;3.58;;
26014;SDS011;13793;55.388;37.844;2023-05-23T07:40:47;7.30;;;3.67;;
26014;SDS011;13793;55.388;37.844;2023-05-23T07:43:18;5.90;;;3.00;;
26014;SDS011;13793;55.388;37.844;2023-05-23T07:45:59;4.72;;;2.85;;
26014;SDS011;13793;55.388;37.844;2023-05-23T07:48:30;5.75;;;2.80;;
26014;SDS011;13793;55.388;37.844;2023-05-23T07:51:11;7.08;;;2.95;;
26014;SDS011;13793;55.388;37.844;2023-05-23T07:53:42;5.03;;;2.98;;
26014;SDS011;13793;55.388;37.844;2023-05-23T07:56:24;5.45;;;3.47;;
26014;SDS011;13793;55.388;37.844;2023-05-23T07:58:55;6.25;;;3.10;;
26014;SDS011;13793;55.388;37.844;2023-05-23T08:01:35;5.78;;;2.62;;
26014;SDS011;13793;55.388;37.844;2023-05-23T08:04:08;6.10;;;2.95;;
26014;SDS011;13793;55.388;37.844;2023-05-23T08:06:57;7.30;;;2.70;;
26014;SDS011;13793;55.388;37.844;2023-05-23T08:09:40;8.58;;;3.17;;
26014;SDS011;13793;55.388;37.844;2023-05-23T08:12:23;8.75;;;2.90;;
26014;SDS011;13793;55.388;37.844;2023-05-23T08:15:05;4.97;;;2.85;;
26014;SDS011;13793;55.388;37.844;2023-05-23T08:17:49;4.92;;;2.70;;
26014;SDS011;13793;55.388;37.844;2023-05-23T08:20:31;6.17;;;2.52;;
26014;SDS011;13793;55.388;37.844;2023-05-23T08:23:02;4.72;;;2.58;;
26014;SDS011;13793;55.388;37.844;2023-05-23T08:25:42;7.75;;;3.42;;
26014;SDS011;13793;55.388;37.844;2023-05-23T08:28:14;5.05;;;2.87;;
26014;SDS011;13793;55.388;37.844;2023-05-23T08:30:59;6.47;;;3.08;;
26014;SDS011;13793;55.388;37.844;2023-05-23T08:33:31;5.92;;;3.10;;
26014;SDS011;13793;55.388;37.844;2023-05-23T08:36:12;5.70;;;3.10;;
26014;SDS011;13793;55.388;37.844;2023-05-23T08:38:54;5.75;;;3.00;;
26014;SDS011;13793;55.388;37.844;2023-05-23T08:41:39;5.20;;;2.65;;
26014;SDS011;13793;55.388;37.844;2023-05-23T08:44:11;8.35;;;3.22;;
26014;SDS011;13793;55.388;37.844;2023-05-23T08:47:05;7.22;;;2.70;;
26014;SDS011;13793;55.388;37.844;2023-05-23T08:49:53;4.85;;;2.80;;
26014;SDS011;13793;55.388;37.844;2023-05-23T08:52:26;5.67;;;2.70;;
26014;SDS011;13793;55.388;37.844;2023-05-23T08:55:08;4.90;;;2.83;;
26014;SDS011;13793;55.388;37.844;2023-05-23T08:57:40;5.85;;;2.80;;
26014;SDS011;13793;55.388;37.844;2023-05-23T09:00:24;5.67;;;2.90;;
26014;SDS011;13793;55.388;37.844;2023-05-23T09:02:56;8.13;;;3.10;;
26014;SDS011;13793;55.388;37.844;2023-05-23T09:05:38;5.08;;;3.12;;
26014;SDS011;13793;55.388;37.844;2023-05-23T09:08:13;6.75;;;3.10;;
26014;SDS011;13793;55.388;37.844;2023-05-23T09:10:54;7.47;;;3.40;;
26014;SDS011;13793;55.388;37.844;2023-05-23T09:13:25;5.45;;;4.05;;
26014;SDS011;13793;55.388;37.844;2023-05-23T09:16:09;6.03;;;3.50;;
26014;SDS011;13793;55.388;37.844;2023-05-23T09:18:51;6.65;;;3.83;;
26014;SDS011;13793;55.388;37.844;2023-05-23T09:21:23;5.25;;;3.40;;
26014;SDS011;13793;55.388;37.844;2023-05-23T09:24:12;7.83;;;3.37;;
26014;SDS011;13793;55.388;37.844;2023-05-23T09:26:41;5.83;;;3.00;;
26014;SDS011;13793;55.388;37.844;2023-05-23T09:29:26;5.60;;;3.00;;
26014;SDS011;13793;55.388;37.844;2023-05-23T09:32:10;5.28;;;2.95;;
26014;SDS011;13793;55.388;37.844;2023-05-23T09:37:41;5.53;;;2.87;;
26014;SDS011;13793;55.388;37.844;2023-05-23T09:40:19;6.28;;;3.00;;
26014;SDS011;13793;55.388;37.844;2023-05-23T09:43:07;4.20;;;2.90;;
26014;SDS011;13793;55.388;37.844;2023-05-23T09:45:38;4.72;;;3.00;;
26014;SDS011;13793;55.388;37.844;2023-05-23T09:48:19;4.75;;;3.20;;
26014;SDS011;13793;55.388;37.844;2023-05-23T09:51:10;7.15;;;3.22;;
26014;SDS011;13793;55.388;37.844;2023-05-23T09:53:38;5.75;;;3.22;;
26014;SDS011;13793;55.388;37.844;2023-05-23T09:56:19;5.10;;;3.30;;
26014;SDS011;13793;55.388;37.844;2023-05-23T09:58:51;9.33;;;3.40;;
26014;SDS011;13793;55.388;37.844;2023-05-23T10:01:45;6.12;;;3.27;;
26014;SDS011;13793;55.388;37.844;2023-05-23T10:04:20;7.00;;;4.22;;
26014;SDS011;13793;55.388;37.844;2023-05-23T10:07:09;5.78;;;3.92;;
26014;SDS011;13793;55.388;37.844;2023-05-23T10:09:55;5.95;;;3.67;;
26014;SDS011;13793;55.388;37.844;2023-05-23T10:12:35;6.25;;;3.60;;
26014;SDS011;13793;55.388;37.844;2023-05-23T10:15:26;7.35;;;4.15;;
26014;SDS011;13793;55.388;37.844;2023-05-23T10:18:05;5.30;;;3.87;;
26014;SDS011;13793;55.388;37.844;2023-05-23T10:20:46;6.33;;;4.78;;
26014;SDS011;13793;55.388;37.844;2023-05-23T10:23:18;9.45;;;4.12;;
26014;SDS011;13793;55.388;37.844;2023-05-23T10:26:00;7.95;;;4.78;;
26014;SDS011;13793;55.388;37.844;2023-05-23T10:28:32;6.58;;;4.53;;
26014;SDS011;13793;55.388;37.844;2023-05-23T10:31:19;7.67;;;4.70;;
26014;SDS011;13793;55.388;37.844;2023-05-23T10:51:19;6.47;;;4.58;;
26014;SDS011;13793;55.388;37.844;2023-05-23T10:53:53;6.30;;;4.35;;
26014;SDS011;13793;55.388;37.844;2023-05-23T10:56:34;6.12;;;4.33;;
26014;SDS011;13793;55.388;37.844;2023-05-23T10:59:05;5.90;;;4.55;;
26014;SDS011;13793;55.388;37.844;2023-05-23T11:01:51;7.67;;;4.90;;
26014;SDS011;13793;55.388;37.844;2023-05-23T11:04:24;5.15;;;4.62;;
26014;SDS011;13793;55.388;37.844;2023-05-23T11:07:06;5.95;;;4.62;;
26014;SDS011;13793;55.388;37.844;2023-05-23T11:12:51;5.30;;;4.50;;
26014;SDS011;13793;55.388;37.844;2023-05-23T11:15:43;6.95;;;4.62;;
26014;SDS011;13793;55.388;37.844;2023-05-23T11:18:36;6.95;;;4.80;;
26014;SDS011;13793;55.388;37.844;2023-05-23T11:21:07;8.53;;;4.83;;
26014;SDS011;13793;55.388;37.844;2023-05-23T11:23:48;6.70;;;4.60;;
26014;SDS011;13793;55.388;37.844;2023-05-23T11:26:28;8.60;;;4.53;;
26014;SDS011;13793;55.388;37.844;2023-05-23T11:29:29;6.22;;;4.50;;
26014;SDS011;13793;55.388;37.844;2023-05-23T11:32:07;8.05;;;4.90;;
26014;SDS011;13793;55.388;37.844;2023-05-23T11:34:50;8.68;;;4.05;;
26014;SDS011;13793;55.388;37.844;2023-05-23T11:37:33;6.75;;;4.40;;
26014;SDS011;13793;55.388;37.844;2023-05-23T11:40:28;6.42;;;4.25;;
26014;SDS011;13793;55.388;37.844;2023-05-23T11:42:57;7.05;;;4.17;;
26014;SDS011;13793;55.388;37.844;2023-05-23T11:45:39;6.83;;;4.60;;
26014;SDS011;13793;55.388;37.844;2023-05-23T11:48:11;5.60;;;4.30;;
26014;SDS011;13793;55.388;37.844;2023-05-23T11:50:54;10.32;;;8.85;;
26014;SDS011;13793;55.388;37.844;2023-05-23T11:53:26;9.35;;;5.47;;
26014;SDS011;13793;55.388;37.844;2023-05-23T11:56:13;8.00;;;5.25;;
26014;SDS011;13793;55.388;37.844;2023-05-23T11:58:45;7.35;;;5.72;;
26014;SDS011;13793;55.388;37.844;2023-05-23T12:01:27;9.65;;;6.42;;
26014;SDS011;13793;55.388;37.844;2023-05-23T12:03:59;7.65;;;5.15;;
26014;SDS011;13793;55.388;37.844;2023-05-23T12:06:45;5.50;;;4.70;;
26014;SDS011;13793;55.388;37.844;2023-05-23T12:09:27;5.65;;;5.05;;
26014;SDS011;13793;55.388;37.844;2023-05-23T12:11:58;7.30;;;4.50;;
26014;SDS011;13793;55.388;37.844;2023-05-23T12:14:40;10.20;;;4.25;;
26014;SDS011;13793;55.388;37.844;2023-05-23T12:17:12;7.97;;;4.60;;
26014;SDS011;13793;55.388;37.844;2023-05-23T12:19:53;8.48;;;4.67;;
26014;SDS011;13793;55.388;37.844;2023-05-23T12:22:24;9.83;;;4.97;;
26014;SDS011;13793;55.388;37.844;2023-05-23T12:25:07;5.95;;;4.37;;
26014;SDS011;13793;55.388;37.844;2023-05-23T12:27:39;7.58;;;4.47;;
26014;SDS011;13793;55.388;37.844;2023-05-23T12:30:21;7.05;;;3.87;;
26014;SDS011;13793;55.388;37.844;2023-05-23T12:32:52;8.40;;;4.17;;
26014;SDS011;13793;55.388;37.844;2023-05-23T12:35:33;6.60;;;4.03;;
26014;SDS011;13793;55.388;37.844;2023-05-23T12:38:04;8.53;;;4.10;;
26014;SDS011;13793;55.388;37.844;2023-05-23T12:40:46;6.87;;;4.47;;
26014;SDS011;13793;55.388;37.844;2023-05-23T12:43:36;7.70;;;4.70;;
26014;SDS011;13793;55.388;37.844;2023-05-23T12:46:09;9.43;;;4.50;;
26014;SDS011;13793;55.388;37.844;2023-05-23T12:48:49;7.30;;;4.90;;
26014;SDS011;13793;55.388;37.844;2023-05-23T12:51:21;8.75;;;4.90;;
26014;SDS011;13793;55.388;37.844;2023-05-23T12:54:02;5.92;;;4.60;;
26014;SDS011;13793;55.388;37.844;2023-05-23T12:56:33;8.33;;;4.47;;
26014;SDS011;13793;55.388;37.844;2023-05-23T12:59:34;6.15;;;4.55;;
26014;SDS011;13793;55.388;37.844;2023-05-23T13:02:05;6.47;;;4.15;;
26014;SDS011;13793;55.388;37.844;2023-05-23T13:04:46;10.48;;;4.87;;
26014;SDS011;13793;55.388;37.844;2023-05-23T13:07:17;5.95;;;4.65;;
26014;SDS011;13793;55.388;37.844;2023-05-23T13:09:58;6.30;;;4.53;;
26014;SDS011;13793;55.388;37.844;2023-05-23T13:12:31;6.85;;;4.47;;
26014;SDS011;13793;55.388;37.844;2023-05-23T13:15:12;7.22;;;4.53;;
26014;SDS011;13793;55.388;37.844;2023-05-23T13:17:43;7.47;;;4.60;;
26014;SDS011;13793;55.388;37.844;2023-05-23T13:20:24;5.90;;;5.30;;
26014;SDS011;13793;55.388;37.844;2023-05-23T13:23:07;5.80;;;4.90;;
26014;SDS011;13793;55.388;37.844;2023-05-23T13:25:38;5.75;;;4.53;;
26014;SDS011;13793;55.388;37.844;2023-05-23T13:28:19;9.08;;;5.40;;
26014;SDS011;13793;55.388;37.844;2023-05-23T13:30:49;6.40;;;4.75;;
26014;SDS011;13793;55.388;37.844;2023-05-23T13:33:30;9.85;;;5.03;;
26014;SDS011;13793;55.388;37.844;2023-05-23T13:36:01;6.22;;;5.10;;
26014;SDS011;13793;55.388;37.844;2023-05-23T13:38:43;6.05;;;5.25;;
26014;SDS011;13793;55.388;37.844;2023-05-23T13:41:14;10.00;;;4.95;;
26014;SDS011;13793;55.388;37.844;2023-05-23T13:43:54;5.83;;;5.05;;
26014;SDS011;13793;55.388;37.844;2023-05-23T13:46:26;8.00;;;5.80;;
26014;SDS011;13793;55.388;37.844;2023-05-23T13:49:12;7.97;;;6.83;;
26014;SDS011;13793;55.388;37.844;2023-05-23T13:51:43;10.10;;;5.95;;
26014;SDS011;13793;55.388;37.844;2023-05-23T13:54:44;8.20;;;5.90;;
26014;SDS011;13793;55.388;37.844;2023-05-23T13:57:14;6.65;;;5.62;;
26014;SDS011;13793;55.388;37.844;2023-05-23T13:59:55;7.85;;;5.83;;
26014;SDS011;13793;55.388;37.844;2023-05-23T14:02:26;9.25;;;5.90;;
26014;SDS011;13793;55.388;37.844;2023-05-23T14:05:08;7.10;;;6.40;;
26014;SDS011;13793;55.388;37.844;2023-05-23T14:07:39;9.68;;;6.15;;
26014;SDS011;13793;55.388;37.844;2023-05-23T14:10:22;7.05;;;6.25;;
26014;SDS011;13793;55.388;37.844;2023-05-23T14:12:53;9.38;;;6.97;;
26014;SDS011;13793;55.388;37.844;2023-05-23T14:15:34;9.58;;;7.08;;
26014;SDS011;13793;55.388;37.844;2023-05-23T14:18:35;9.43;;;7.42;;
26014;SDS011;13793;55.388;37.844;2023-05-23T14:21:07;8.78;;;7.58;;
26014;SDS011;13793;55.388;37.844;2023-05-23T14:23:48;9.73;;;7.45;;
26014;SDS011;13793;55.388;37.844;2023-05-23T14:26:19;8.03;;;6.70;;
26014;SDS011;13793;55.388;37.844;2023-05-23T14:29:01;8.53;;;6.45;;
26014;SDS011;13793;55.388;37.844;2023-05-23T14:31:32;11.18;;;6.67;;
26014;SDS011;13793;55.388;37.844;2023-05-23T14:34:13;7.65;;;6.80;;
26014;SDS011;13793;55.388;37.844;2023-05-23T14:36:44;9.55;;;6.53;;
26014;SDS011;13793;55.388;37.844;2023-05-23T14:39:25;8.30;;;7.03;;
26014;SDS011;13793;55.388;37.844;2023-05-23T14:41:56;11.08;;;7.10;;
26014;SDS011;13793;55.388;37.844;2023-05-23T14:44:37;10.30;;;7.30;;
26014;SDS011;13793;55.388;37.844;2023-05-23T14:47:08;7.75;;;6.95;;
26014;SDS011;13793;55.388;37.844;2023-05-23T14:49:49;10.70;;;8.83;;
26014;SDS011;13793;55.388;37.844;2023-05-23T14:52:20;9.50;;;7.83;;
26014;SDS011;13793;55.388;37.844;2023-05-23T14:55:01;11.68;;;9.20;;
26014;SDS011;13793;55.388;37.844;2023-05-23T14:57:32;11.43;;;8.28;;
26014;SDS011;13793;55.388;37.844;2023-05-23T15:00:13;11.50;;;7.78;;
26014;SDS011;13793;55.388;37.844;2023-05-23T15:02:45;10.55;;;7.65;;
26014;SDS011;13793;55.388;37.844;2023-05-23T15:05:26;13.93;;;8.60;;
26014;SDS011;13793;55.388;37.844;2023-05-23T15:07:56;11.03;;;7.92;;
26014;SDS011;13793;55.388;37.844;2023-05-23T15:10:37;13.78;;;8.58;;
26014;SDS011;13793;55.388;37.844;2023-05-23T15:13:10;10.75;;;7.92;;
26014;SDS011;13793;55.388;37.844;2023-05-23T15:15:51;9.15;;;8.13;;
26014;SDS011;13793;55.388;37.844;2023-05-23T15:18:22;12.13;;;8.65;;
26014;SDS011;13793;55.388;37.844;2023-05-23T15:21:03;13.30;;;10.08;;
26014;SDS011;13793;55.388;37.844;2023-05-23T15:23:34;11.68;;;9.18;;
26014;SDS011;13793;55.388;37.844;2023-05-23T15:26:15;10.32;;;8.60;;
26014;SDS011;13793;55.388;37.844;2023-05-23T15:28:46;16.52;;;10.85;;
26014;SDS011;13793;55.388;37.844;2023-05-23T15:31:26;12.00;;;9.65;;
26014;SDS011;13793;55.388;37.844;2023-05-23T15:33:57;16.52;;;9.70;;
26014;SDS011;13793;55.388;37.844;2023-05-23T15:36:38;13.85;;;9.20;;
26014;SDS011;13793;55.388;37.844;2023-05-23T15:39:10;12.47;;;9.25;;
26014;SDS011;13793;55.388;37.844;2023-05-23T15:41:51;11.50;;;9.25;;
26014;SDS011;13793;55.388;37.844;2023-05-23T15:44:22;12.55;;;9.58;;
26014;SDS011;13793;55.388;37.844;2023-05-23T15:47:03;13.68;;;9.83;;
26014;SDS011;13793;55.388;37.844;2023-05-23T15:49:34;15.85;;;9.28;;
26014;SDS011;13793;55.388;37.844;2023-05-23T15:52:34;11.97;;;8.43;;
26014;SDS011;13793;55.388;37.844;2023-05-23T15:55:06;17.75;;;9.18;;
26014;SDS011;13793;55.388;37.844;2023-05-23T15:58:06;11.65;;;8.48;;
26014;SDS011;13793;55.388;37.844;2023-05-23T16:00:37;11.12;;;8.23;;